Time;durP1;ratioP1;P1;durP2;ratioP2;P2;SDS_P1;SDS_P2;PMS_P1;PMS_P2;Temp;Humidity;BMP_temperature;BMP_pressure;BME280_temperature;BME280_humidity;BME280_pressure;Samples;Min_cycle;Max_cycle;Signal;HPM_P1;HPM_P2
2022/07/21 00:01:04;;;;;;;11.80;6.00;;;;;;;21.38;80.66;101536.47;5033378;28;20024;-77
2022/07/21 00:03:30;;;;;;;8.60;6.25;;;;;;;21.34;81.52;101533.44;5045066;28;21124;-77
2022/07/21 00:05:55;;;;;;;8.52;5.15;;;;;;;21.35;81.41;101539.50;5047260;28;20033;-77
2022/07/21 00:08:21;;;;;;;9.45;6.85;;;;;;;21.35;81.00;101534.25;5051514;28;20032;-77
2022/07/21 00:10:47;;;;;;;8.45;6.13;;;;;;;21.35;81.04;101542.94;5064023;28;20024;-77
2022/07/21 00:13:13;;;;;;;9.13;5.47;;;;;;;21.33;80.69;101547.63;5062616;28;20081;-76
2022/07/21 00:15:39;;;;;;;10.20;6.05;;;;;;;21.25;80.89;101553.16;5044905;28;20111;-78
2022/07/21 00:18:04;;;;;;;7.72;5.00;;;;;;;21.17;81.48;101542.81;5046630;28;20035;-77
2022/07/21 00:20:30;;;;;;;7.40;5.50;;;;;;;21.09;81.81;101543.84;5047916;28;20071;-76
2022/07/21 00:22:57;;;;;;;7.15;5.78;;;;;;;21.09;81.70;101540.41;5049722;28;20059;-77
2022/07/21 00:25:22;;;;;;;8.00;5.43;;;;;;;21.12;81.21;101540.81;5066510;28;20040;-77
2022/07/21 00:27:48;;;;;;;6.75;5.15;;;;;;;21.15;81.19;101544.84;5064271;28;20111;-76
2022/07/21 00:30:14;;;;;;;7.55;5.25;;;;;;;21.12;81.45;101540.81;5047246;28;20032;-77
2022/07/21 00:32:41;;;;;;;6.72;4.97;;;;;;;21.10;80.81;101542.84;5064783;28;20043;-77
2022/07/21 00:35:08;;;;;;;8.32;4.68;;;;;;;21.07;80.94;101540.63;5064845;28;20079;-77
2022/07/21 00:37:33;;;;;;;7.03;5.15;;;;;;;21.02;81.49;101542.25;5057703;28;20569;-77
2022/07/21 00:39:59;;;;;;;7.88;4.85;;;;;;;20.99;81.83;101531.13;5048898;28;20020;-77
2022/07/21 00:42:27;;;;;;;12.20;5.28;;;;;;;20.98;81.88;101526.88;5051439;28;20340;-77
2022/07/21 00:44:53;;;;;;;7.47;5.05;;;;;;;20.94;82.20;101519.56;5051881;28;20114;-77
2022/07/21 00:47:20;;;;;;;8.75;5.82;;;;;;;20.92;82.11;101517.16;5067600;28;20036;-77
2022/07/21 00:49:46;;;;;;;8.70;6.10;;;;;;;20.94;82.36;101525.66;5047858;28;20433;-77
2022/07/21 00:52:12;;;;;;;17.25;6.35;;;;;;;20.93;82.44;101525.88;5030708;28;20020;-77
2022/07/21 00:54:37;;;;;;;9.55;5.20;;;;;;;20.94;82.14;101535.41;5062731;28;20058;-79
2022/07/21 00:57:03;;;;;;;12.68;6.30;;;;;;;20.95;81.91;101547.56;5048774;28;20060;-78
2022/07/21 00:59:29;;;;;;;6.53;4.80;;;;;;;20.96;81.73;101539.47;5030123;28;20024;-77
2022/07/21 01:01:55;;;;;;;6.70;4.63;;;;;;;20.97;81.50;101537.63;5043420;28;20106;-78
2022/07/21 01:04:20;;;;;;;7.93;5.43;;;;;;;20.89;81.68;101538.66;5063184;28;20052;-78
2022/07/21 01:06:47;;;;;;;6.05;4.90;;;;;;;20.83;82.14;101542.09;5066383;28;20039;-77
2022/07/21 01:09:12;;;;;;;5.93;4.80;;;;;;;20.76;82.31;101536.88;5045388;28;20047;-77
2022/07/21 01:11:39;;;;;;;7.45;4.63;;;;;;;20.70;82.84;101535.06;5047054;28;20029;-77
2022/07/21 01:14:05;;;;;;;6.57;4.68;;;;;;;20.71;82.64;101536.66;5041854;28;20029;-76
2022/07/21 01:16:31;;;;;;;6.72;5.10;;;;;;;20.71;82.99;101539.28;5062653;28;20028;-76
2022/07/21 01:18:57;;;;;;;5.97;4.80;;;;;;;20.66;83.39;101541.72;5064401;28;20032;-77
2022/07/21 01:21:30;;;;;;;6.22;4.93;;;;;;;20.64;83.97;101541.13;5028186;28;20028;-76
2022/07/21 01:23:56;;;;;;;6.85;4.82;;;;;;;20.63;83.39;101546.63;5043546;28;20042;-76
2022/07/21 01:26:21;;;;;;;7.53;4.50;;;;;;;20.60;82.85;101542.56;5062920;28;20028;-76
2022/07/21 01:28:47;;;;;;;6.22;4.72;;;;;;;20.60;82.69;101545.19;5045394;28;20056;-76
2022/07/21 01:31:12;;;;;;;9.43;4.93;;;;;;;20.56;82.21;101544.75;5066376;28;20028;-75
2022/07/21 01:33:38;;;;;;;6.47;5.28;;;;;;;20.47;82.65;101550.44;5062405;28;20074;-75
2022/07/21 01:36:04;;;;;;;6.57;4.60;;;;;;;20.41;83.40;101549.44;5061652;28;20107;-76
2022/07/21 01:41:28;;;;;;;7.22;5.68;;;;;;;20.42;84.16;101548.44;5043522;28;20064;-76
2022/07/21 01:43:55;;;;;;;6.25;4.47;;;;;;;20.44;83.30;101549.03;5039743;28;20036;-75
2022/07/21 01:46:20;;;;;;;5.97;4.45;;;;;;;20.36;83.44;101552.69;5058239;28;20028;-75
2022/07/21 01:48:46;;;;;;;6.13;4.20;;;;;;;20.32;84.05;101546.19;5062935;28;20029;-74
2022/07/21 01:51:12;;;;;;;6.05;4.60;;;;;;;20.30;84.18;101545.56;5059288;28;20431;-75
2022/07/21 01:53:38;;;;;;;7.85;5.13;;;;;;;20.26;84.30;101540.94;5040502;28;20032;-75
2022/07/21 01:56:04;;;;;;;6.63;4.47;;;;;;;20.26;84.27;101533.81;5044089;28;20503;-75
2022/07/21 01:58:30;;;;;;;6.32;4.63;;;;;;;20.27;84.41;101540.72;5063442;28;20040;-74
2022/07/21 02:00:56;;;;;;;9.10;5.10;;;;;;;20.31;84.19;101543.78;5047060;28;20025;-74
2022/07/21 02:03:22;;;;;;;7.63;4.45;;;;;;;20.33;83.79;101539.09;5044328;28;20436;-75
2022/07/21 02:05:47;;;;;;;8.25;5.18;;;;;;;20.33;83.37;101544.38;5045369;28;20040;-74
2022/07/21 02:08:13;;;;;;;7.35;4.22;;;;;;;20.25;83.56;101548.03;5048515;28;20036;-75
2022/07/21 02:10:38;;;;;;;8.05;5.15;;;;;;;20.22;84.26;101554.47;5065802;28;20032;-74
2022/07/21 02:13:04;;;;;;;9.32;6.10;;;;;;;20.18;84.62;101544.56;5066974;28;20020;-74
2022/07/21 02:15:30;;;;;;;7.90;5.13;;;;;;;20.14;84.72;101548.63;5045825;28;20774;-74
2022/07/21 02:17:56;;;;;;;7.25;5.68;;;;;;;20.12;84.74;101548.03;5043725;28;20033;-74
2022/07/21 02:20:22;;;;;;;10.80;4.95;;;;;;;20.13;84.98;101549.63;5070095;28;20025;-75
2022/07/21 02:22:48;;;;;;;7.15;5.63;;;;;;;20.14;85.16;101544.16;5063648;28;20673;-74
2022/07/21 02:25:14;;;;;;;7.40;4.72;;;;;;;20.18;85.32;101544.56;5046308;28;20039;-74
2022/07/21 02:27:40;;;;;;;10.35;5.25;;;;;;;20.13;85.48;101550.44;5042359;28;20072;-74
2022/07/21 02:30:06;;;;;;;6.10;4.82;;;;;;;20.14;85.54;101541.53;5047523;28;20493;-74
2022/07/21 02:32:32;;;;;;;7.70;6.18;;;;;;;20.14;85.23;101543.34;5064570;28;20029;-75
2022/07/21 02:34:57;;;;;;;9.38;5.85;;;;;;;20.03;85.91;101553.47;5045248;28;20028;-74
2022/07/21 02:37:23;;;;;;;8.70;5.65;;;;;;;19.93;86.43;101549.59;5047006;28;20040;-76
2022/07/21 02:39:49;;;;;;;9.20;5.97;;;;;;;19.85;86.09;101553.22;5046420;28;20039;-74
2022/07/21 02:42:14;;;;;;;10.85;6.05;;;;;;;19.81;87.05;101557.25;5029665;28;20043;-74
2022/07/21 02:44:40;;;;;;;9.30;6.25;;;;;;;19.74;87.82;101551.16;5042914;28;20032;-74
2022/07/21 02:47:05;;;;;;;8.10;5.70;;;;;;;19.74;87.91;101552.00;5067415;28;20025;-75
2022/07/21 02:49:31;;;;;;;7.40;6.22;;;;;;;19.75;88.36;101552.81;5046543;28;20691;-75
2022/07/21 02:51:56;;;;;;;8.07;5.50;;;;;;;19.69;89.13;101548.31;5063537;28;20032;-74
2022/07/21 02:54:22;;;;;;;8.73;6.57;;;;;;;19.67;89.39;101547.69;5062619;28;20029;-75
2022/07/21 02:56:47;;;;;;;12.55;7.65;;;;;;;19.62;88.53;101551.72;5045188;28;20044;-74
2022/07/21 02:59:12;;;;;;;9.63;7.75;;;;;;;19.69;88.13;101550.94;5061920;28;20032;-74
2022/07/21 03:01:38;;;;;;;14.55;8.68;;;;;;;19.64;87.56;101547.06;5044855;28;20024;-74
2022/07/21 03:04:04;;;;;;;16.50;8.90;;;;;;;19.59;88.15;101544.22;5051877;28;20047;-74
2022/07/21 03:06:29;;;;;;;9.95;7.20;;;;;;;19.53;88.98;101544.19;5045661;28;20036;-74
2022/07/21 03:08:54;;;;;;;11.90;8.00;;;;;;;19.52;89.21;101534.69;5065684;28;20059;-75
2022/07/21 03:11:20;;;;;;;11.73;6.90;;;;;;;19.56;89.63;101531.47;5046365;28;20028;-74
2022/07/21 03:13:45;;;;;;;11.63;7.78;;;;;;;19.63;89.50;101536.75;5044807;28;20564;-74
2022/07/21 03:16:11;;;;;;;11.00;8.40;;;;;;;19.60;90.00;101535.31;5046169;28;20067;-74
2022/07/21 03:18:36;;;;;;;13.65;8.50;;;;;;;19.51;89.67;101530.44;5045853;28;20109;-73
2022/07/21 03:21:02;;;;;;;12.20;8.48;;;;;;;19.49;89.13;101524.56;5043744;28;20049;-75
2022/07/21 03:23:28;;;;;;;11.20;8.65;;;;;;;19.45;90.10;101521.50;5044598;28;20052;-75
2022/07/21 03:25:53;;;;;;;10.60;8.52;;;;;;;19.39;91.57;101522.31;5060568;28;20044;-73
2022/07/21 03:28:19;;;;;;;13.60;8.15;;;;;;;19.38;91.47;101516.25;5061774;28;20032;-73
2022/07/21 03:30:44;;;;;;;11.35;7.15;;;;;;;19.35;91.56;101524.53;5059202;28;20551;-73
2022/07/21 03:33:10;;;;;;;15.73;9.40;;;;;;;19.36;90.44;101515.59;5039664;28;20638;-74
2022/07/21 03:35:35;;;;;;;11.77;8.05;;;;;;;19.34;90.00;101520.25;5062798;28;20037;-73
2022/07/21 03:38:01;;;;;;;13.88;8.52;;;;;;;19.28;90.27;101517.63;5059883;28;20465;-74
2022/07/21 03:40:30;;;;;;;12.32;8.38;;;;;;;19.30;90.26;101523.47;5040416;28;20029;-72
2022/07/21 03:42:57;;;;;;;13.18;8.50;;;;;;;19.31;89.85;101528.56;5059350;28;20102;-74
2022/07/21 03:45:24;;;;;;;11.57;7.82;;;;;;;19.30;90.70;101528.75;5043727;28;20121;-74
2022/07/21 03:47:50;;;;;;;10.73;7.40;;;;;;;19.26;90.74;101529.13;5044710;28;21010;-74
2022/07/21 03:50:17;;;;;;;20.55;10.57;;;;;;;19.30;89.97;101528.75;5045595;28;20111;-74
2022/07/21 03:52:43;;;;;;;13.35;9.30;;;;;;;19.24;90.08;101525.09;5054762;28;20028;-74
2022/07/21 03:55:09;;;;;;;12.80;9.50;;;;;;;19.24;90.99;101525.88;5054694;28;20091;-74
2022/07/21 03:57:39;;;;;;;11.95;8.23;;;;;;;19.26;91.43;101529.13;5059272;28;20032;-74
2022/07/21 04:00:08;;;;;;;17.15;9.70;;;;;;;19.30;89.93;101521.66;5045061;28;20058;-74
2022/07/21 04:02:37;;;;;;;14.07;9.55;;;;;;;19.23;90.33;101516.38;5045848;28;20118;-74
2022/07/21 04:05:03;;;;;;;13.52;8.63;;;;;;;19.25;90.81;101510.94;5061874;28;20428;-75
2022/07/21 04:07:28;;;;;;;10.05;8.10;;;;;;;19.22;91.42;101512.13;5027306;28;20036;-73
2022/07/21 04:09:54;;;;;;;12.82;9.18;;;;;;;19.18;91.30;101510.91;5044511;28;20043;-74
2022/07/21 04:12:20;;;;;;;15.02;10.40;;;;;;;19.17;91.43;101504.00;5028056;28;20059;-75
2022/07/21 04:14:45;;;;;;;13.63;8.38;;;;;;;19.17;91.51;101500.56;5042043;28;20046;-74
2022/07/21 04:17:10;;;;;;;12.45;9.25;;;;;;;19.15;91.61;101510.47;5043617;28;20044;-73
2022/07/21 04:19:36;;;;;;;13.73;8.32;;;;;;;19.22;91.40;101500.81;5044530;28;20036;-75
2022/07/21 04:22:01;;;;;;;14.93;10.50;;;;;;;19.18;90.70;101507.47;5045002;28;20791;-74
2022/07/21 04:24:27;;;;;;;16.23;9.23;;;;;;;19.17;90.41;101509.25;5060878;28;20480;-74
2022/07/21 04:26:52;;;;;;;13.07;9.43;;;;;;;19.18;90.81;101503.00;5061413;28;20024;-74
2022/07/21 04:29:18;;;;;;;12.90;7.90;;;;;;;19.20;90.86;101508.09;5062302;28;20036;-73
2022/07/21 04:31:43;;;;;;;13.88;9.40;;;;;;;19.17;90.71;101506.63;5061047;28;20039;-74
2022/07/21 04:34:09;;;;;;;12.30;8.32;;;;;;;19.21;90.96;101509.69;5060216;28;20040;-73
2022/07/21 04:36:34;;;;;;;13.27;9.07;;;;;;;19.21;91.08;101509.69;5044223;28;20036;-74
2022/07/21 04:38:59;;;;;;;14.52;8.73;;;;;;;19.21;91.50;101502.63;5062355;28;20137;-74
2022/07/21 04:41:25;;;;;;;15.75;9.40;;;;;;;19.24;91.26;101506.69;5061980;28;20497;-74
2022/07/21 04:43:50;;;;;;;17.13;9.18;;;;;;;19.20;91.81;101502.81;5069671;28;20035;-74
2022/07/21 04:46:16;;;;;;;12.27;8.93;;;;;;;19.13;91.76;101507.25;5066648;28;20081;-74
2022/07/21 04:48:41;;;;;;;11.90;8.82;;;;;;;19.09;91.82;101506.81;5044425;28;20618;-74
2022/07/21 04:51:07;;;;;;;12.05;9.45;;;;;;;19.10;92.06;101511.06;5059156;28;20024;-75
2022/07/21 04:53:32;;;;;;;15.40;10.27;;;;;;;19.20;92.04;101511.50;5037115;28;20033;-73
2022/07/21 04:55:58;;;;;;;13.60;8.80;;;;;;;19.15;92.19;101513.09;5043677;28;20036;-74
2022/07/21 04:58:23;;;;;;;12.90;8.70;;;;;;;19.16;92.38;101512.91;5062288;28;20047;-74
2022/07/21 05:00:48;;;;;;;11.40;8.73;;;;;;;19.19;91.91;101522.22;5047224;28;20051;-74
2022/07/21 05:03:14;;;;;;;17.00;10.00;;;;;;;19.26;91.19;101515.97;5064913;28;20505;-75
2022/07/21 05:05:40;;;;;;;12.23;9.35;;;;;;;19.22;90.92;101520.00;5046336;28;20032;-75
2022/07/21 05:08:05;;;;;;;13.23;9.70;;;;;;;19.25;91.24;101519.63;5060689;28;20089;-74
2022/07/21 05:10:31;;;;;;;12.63;9.02;;;;;;;19.18;91.49;101517.97;5041686;28;20024;-74
2022/07/21 05:12:56;;;;;;;13.93;8.80;;;;;;;19.23;91.71;101524.28;5044708;28;20481;-75
2022/07/21 05:15:22;;;;;;;13.65;7.95;;;;;;;19.31;91.22;101519.84;5062329;28;20024;-73
2022/07/21 05:17:47;;;;;;;13.43;9.52;;;;;;;19.37;90.79;101514.63;5054718;28;20033;-75
2022/07/21 05:20:13;;;;;;;14.48;10.02;;;;;;;19.43;90.33;101518.28;5059056;28;20044;-74
2022/07/21 05:22:38;;;;;;;12.07;7.88;;;;;;;19.44;90.83;101520.72;5059146;28;20032;-74
2022/07/21 05:25:05;;;;;;;17.60;10.23;;;;;;;19.45;91.06;101513.63;5060037;28;20036;-74
2022/07/21 05:27:31;;;;;;;15.23;9.38;;;;;;;19.50;91.02;101523.56;5058068;28;20032;-74
2022/07/21 05:29:56;;;;;;;15.32;9.52;;;;;;;19.54;91.07;101530.06;5059784;28;20040;-74
2022/07/21 05:32:22;;;;;;;20.10;11.52;;;;;;;19.54;90.62;101522.97;5048378;28;20088;-74
2022/07/21 05:34:47;;;;;;;15.82;9.65;;;;;;;19.64;90.59;101530.47;5036428;28;20032;-74
2022/07/21 05:37:12;;;;;;;18.02;10.85;;;;;;;19.67;90.27;101529.28;5059124;28;20065;-74
2022/07/21 05:39:38;;;;;;;14.60;9.48;;;;;;;19.69;89.49;101530.69;5046298;28;20437;-74
2022/07/21 05:42:04;;;;;;;18.92;10.40;;;;;;;19.67;88.99;101524.81;5063450;28;20074;-75
2022/07/21 05:44:29;;;;;;;14.30;9.57;;;;;;;19.72;89.58;101518.94;5048480;28;20052;-74
2022/07/21 05:46:55;;;;;;;15.43;9.63;;;;;;;19.67;89.71;101519.56;5065900;28;20094;-74
2022/07/21 05:49:20;;;;;;;16.17;9.63;;;;;;;19.65;89.46;101525.03;5049658;28;20055;-75
2022/07/21 05:51:46;;;;;;;17.35;9.90;;;;;;;19.60;89.14;101530.06;5065685;28;20077;-75
2022/07/21 05:54:11;;;;;;;19.75;10.38;;;;;;;19.74;88.74;101519.59;5045505;28;20044;-75
2022/07/21 05:56:37;;;;;;;16.33;10.18;;;;;;;19.65;89.05;101521.59;5045730;28;20119;-75
2022/07/21 05:59:02;;;;;;;17.50;10.02;;;;;;;19.64;89.08;101530.47;5062528;28;20109;-75
2022/07/21 06:01:27;;;;;;;13.43;9.75;;;;;;;19.68;89.00;101518.53;5064296;28;20032;-77
2022/07/21 06:03:53;;;;;;;13.82;10.23;;;;;;;19.67;88.66;101522.19;5052602;28;20070;-77
2022/07/21 06:06:19;;;;;;;16.50;9.27;;;;;;;19.71;88.17;101517.34;5059947;28;20366;-76
2022/07/21 06:08:47;;;;;;;19.35;10.45;;;;;;;19.77;87.44;101517.38;5048966;28;20090;-75
2022/07/21 06:11:15;;;;;;;14.60;9.07;;;;;;;19.72;87.07;101522.44;5037218;28;20473;-76
2022/07/21 06:13:41;;;;;;;17.20;10.32;;;;;;;19.84;87.51;101522.66;5065039;28;20655;-75
2022/07/21 06:16:07;;;;;;;15.43;9.57;;;;;;;19.86;86.58;101520.63;5047749;28;20135;-75
2022/07/21 06:18:33;;;;;;;10.05;7.80;;;;;;;19.91;87.40;101520.84;5046762;28;20047;-75
2022/07/21 06:20:59;;;;;;;13.48;8.32;;;;;;;20.03;87.20;101516.59;5046663;28;20032;-73
2022/07/21 06:23:25;;;;;;;11.13;8.68;;;;;;;20.06;86.97;101514.59;5064658;28;21692;-77
2022/07/21 06:25:51;;;;;;;13.52;7.65;;;;;;;20.09;85.56;101514.19;5046556;28;20392;-75
2022/07/21 06:28:17;;;;;;;11.13;8.43;;;;;;;20.26;85.06;101511.97;5062210;28;20029;-76
2022/07/21 06:30:43;;;;;;;12.38;8.50;;;;;;;20.53;84.20;101512.75;5060607;28;21543;-75
2022/07/21 06:33:08;;;;;;;12.05;7.43;;;;;;;20.59;83.92;101511.94;5063326;28;20024;-76
2022/07/21 06:35:34;;;;;;;13.18;8.27;;;;;;;20.47;80.48;101509.09;5064028;28;20904;-76
2022/07/21 06:38:00;;;;;;;13.82;7.70;;;;;;;20.56;81.04;101510.50;5060766;28;20032;-75
2022/07/21 06:40:25;;;;;;;11.80;6.90;;;;;;;20.77;80.56;101516.59;5045689;28;20032;-75
2022/07/21 06:42:51;;;;;;;14.73;8.30;;;;;;;20.76;81.55;101531.59;5032274;28;20113;-74
2022/07/21 06:45:17;;;;;;;12.95;7.45;;;;;;;20.83;81.58;101533.41;5047306;28;20076;-74
2022/07/21 06:47:43;;;;;;;12.32;7.63;;;;;;;20.72;81.77;101535.66;5045885;28;20122;-75
2022/07/21 06:50:09;;;;;;;11.88;6.78;;;;;;;20.66;82.24;101538.28;5046325;28;20035;-75
2022/07/21 06:52:35;;;;;;;17.25;10.05;;;;;;;20.61;82.76;101542.34;5043758;28;20036;-75
2022/07/21 06:55:02;;;;;;;13.13;8.02;;;;;;;20.58;81.99;101547.19;5063819;28;20043;-75
2022/07/21 06:57:28;;;;;;;13.88;7.75;;;;;;;20.65;81.98;101550.66;5063574;28;20039;-73
2022/07/21 06:59:53;;;;;;;13.43;7.30;;;;;;;20.56;82.01;101549.22;5026618;28;20036;-76
2022/07/21 07:02:19;;;;;;;16.02;7.38;;;;;;;20.58;80.06;101544.56;5047868;28;20111;-76
2022/07/21 07:04:44;;;;;;;10.90;7.03;;;;;;;20.54;80.65;101548.63;5064542;28;20032;-74
2022/07/21 07:07:10;;;;;;;10.75;6.75;;;;;;;20.39;80.07;101540.91;5044011;28;20742;-76
2022/07/21 07:09:36;;;;;;;8.82;6.95;;;;;;;20.92;79.16;101542.69;5046590;28;20037;-76
2022/07/21 07:12:05;;;;;;;11.90;6.78;;;;;;;21.38;77.10;101549.66;5069095;28;20031;-76
2022/07/21 07:14:32;;;;;;;7.75;5.78;;;;;;;21.52;76.33;101548.59;5061574;28;20093;-75
2022/07/21 07:16:58;;;;;;;11.52;6.30;;;;;;;21.56;76.21;101551.63;5069974;28;20028;-76
2022/07/21 07:19:24;;;;;;;13.77;6.30;;;;;;;21.59;75.59;101551.22;5045698;28;20117;-76
2022/07/21 07:21:49;;;;;;;13.27;6.10;;;;;;;21.48;74.47;101542.13;5033882;28;20473;-74
2022/07/21 07:24:15;;;;;;;9.40;5.85;;;;;;;21.88;72.52;101533.97;5062412;28;20032;-75
2022/07/21 07:26:40;;;;;;;9.35;5.50;;;;;;;22.21;72.27;101532.09;5042026;28;20473;-75
2022/07/21 07:29:06;;;;;;;16.77;5.45;;;;;;;22.21;72.00;101548.78;5046655;28;20039;-75
2022/07/21 07:31:31;;;;;;;10.32;5.38;;;;;;;22.13;72.03;101541.94;5066842;28;20728;-76
2022/07/21 07:33:57;;;;;;;10.63;5.40;;;;;;;21.85;71.04;101549.41;5027317;28;20644;-75
2022/07/21 07:36:24;;;;;;;9.15;5.10;;;;;;;21.73;70.56;101546.66;5064468;28;20028;-75
2022/07/21 07:38:51;;;;;;;9.70;4.97;;;;;;;21.65;71.61;101549.56;5063344;28;20223;-75
2022/07/21 07:41:18;;;;;;;9.40;5.72;;;;;;;21.54;71.91;101551.03;5044984;28;20039;-74
2022/07/21 07:43:43;;;;;;;9.90;5.32;;;;;;;21.46;72.40;101552.06;5061633;28;20028;-74
2022/07/21 07:46:10;;;;;;;12.85;6.38;;;;;;;21.54;73.02;101545.75;5066022;28;20028;-76
2022/07/21 07:48:37;;;;;;;11.30;6.18;;;;;;;21.62;72.40;101548.13;5047079;28;20040;-76
2022/07/21 07:51:03;;;;;;;9.30;6.22;;;;;;;21.53;73.12;101550.22;5047051;28;20040;-76
2022/07/21 07:53:29;;;;;;;8.82;5.70;;;;;;;21.54;73.00;101540.47;5063009;28;20485;-74
2022/07/21 07:55:55;;;;;;;12.13;5.88;;;;;;;21.53;73.45;101552.84;5043284;28;20063;-75
2022/07/21 07:58:20;;;;;;;9.90;5.65;;;;;;;21.43;73.29;101551.66;5046769;28;20050;-75
2022/07/21 08:00:46;;;;;;;13.57;6.55;;;;;;;21.25;73.41;101553.16;5027028;28;20060;-75
2022/07/21 08:03:11;;;;;;;12.48;6.78;;;;;;;21.20;73.70;101559.03;5049337;28;20706;-74
2022/07/21 08:05:37;;;;;;;11.80;6.63;;;;;;;21.36;73.25;101551.66;5044249;28;20029;-76
2022/07/21 08:08:02;;;;;;;12.82;6.55;;;;;;;21.89;72.19;101543.53;5058961;28;20033;-75
2022/07/21 08:10:28;;;;;;;14.57;6.25;;;;;;;22.96;67.89;101537.28;5060863;28;20134;-77
2022/07/21 08:12:54;;;;;;;8.15;6.28;;;;;;;23.60;66.40;101537.78;5062671;28;20524;-76
2022/07/21 08:15:19;;;;;;;9.40;6.00;;;;;;;24.31;61.62;101521.22;5045767;28;20047;-75
2022/07/21 08:17:45;;;;;;;10.57;5.72;;;;;;;25.21;59.69;101528.72;5043301;28;20989;-76
2022/07/21 08:20:11;;;;;;;10.10;6.65;;;;;;;25.08;60.02;101523.69;5026102;28;20025;-76
2022/07/21 08:22:36;;;;;;;8.90;5.72;;;;;;;25.03;59.65;101524.41;5044903;28;20111;-77
2022/07/21 08:25:02;;;;;;;9.30;5.50;;;;;;;24.61;62.10;101526.44;5049227;28;20029;-76
2022/07/21 08:27:28;;;;;;;11.45;6.38;;;;;;;24.26;63.18;101530.69;5025936;28;20120;-77
2022/07/21 08:29:53;;;;;;;10.82;6.10;;;;;;;24.15;64.61;101533.28;5046847;28;20036;-77
2022/07/21 08:32:19;;;;;;;9.65;6.15;;;;;;;23.95;63.19;101531.78;5043511;28;20041;-75
2022/07/21 08:34:45;;;;;;;11.52;6.18;;;;;;;23.72;62.88;101537.81;5028692;28;20078;-76
2022/07/21 08:37:11;;;;;;;17.42;7.38;;;;;;;23.59;62.37;101536.16;5042952;28;20040;-75
2022/07/21 08:39:36;;;;;;;11.35;6.13;;;;;;;23.58;64.51;101536.38;5064540;28;20543;-74
2022/07/21 08:42:02;;;;;;;10.25;6.45;;;;;;;23.65;62.72;101542.38;5061896;28;20047;-73
2022/07/21 08:44:27;;;;;;;10.65;5.38;;;;;;;23.87;62.22;101521.53;5058568;28;20028;-75
2022/07/21 08:46:54;;;;;;;10.88;5.82;;;;;;;24.12;60.15;101529.28;5039681;28;20462;-74
2022/07/21 08:49:22;;;;;;;8.90;5.45;;;;;;;24.14;60.17;101537.78;5046383;28;20036;-74
2022/07/21 08:51:48;;;;;;;10.60;5.78;;;;;;;24.16;60.22;101533.06;5044484;28;20103;-75
2022/07/21 08:54:14;;;;;;;7.68;5.35;;;;;;;23.90;61.08;101548.38;5063826;28;20565;-76
2022/07/21 08:56:39;;;;;;;11.43;5.47;;;;;;;23.73;61.44;101542.06;5042228;28;20028;-75
2022/07/21 08:59:05;;;;;;;11.40;6.22;;;;;;;23.79;59.68;101540.38;5044669;28;20121;-74
2022/07/21 09:01:31;;;;;;;11.00;5.88;;;;;;;23.66;60.94;101546.66;5058519;28;20032;-74
2022/07/21 09:04:19;;;;;;;14.43;6.43;;;;;;;23.55;61.54;101547.41;5059266;28;20033;-75
2022/07/21 09:06:55;;;;;;;7.22;5.47;;;;;;;23.46;62.77;101549.56;5026688;28;20040;-75
2022/07/21 09:09:21;;;;;;;10.15;5.90;;;;;;;23.44;63.20;101557.72;5062090;28;20039;-77
2022/07/21 09:11:47;;;;;;;12.55;5.85;;;;;;;23.32;62.91;101554.22;5036605;28;20032;-75
2022/07/21 09:14:18;;;;;;;11.90;5.65;;;;;;;23.44;63.36;101555.06;5066411;28;20048;-76
2022/07/21 09:16:44;;;;;;;16.92;6.85;;;;;;;23.18;63.24;101550.13;5044310;28;20052;-74
2022/07/21 09:19:27;;;;;;;11.48;6.22;;;;;;;23.16;64.53;101539.75;5046027;28;20143;-74
2022/07/21 09:21:58;;;;;;;10.27;6.05;;;;;;;23.30;63.92;101553.63;5045027;28;20586;-75
2022/07/21 09:24:29;;;;;;;8.20;5.25;;;;;;;23.19;64.32;101541.97;5043831;28;20106;-73
2022/07/21 09:27:04;;;;;;;10.35;5.47;;;;;;;23.35;63.93;101539.72;5046509;28;20382;-76
2022/07/21 09:29:57;;;;;;;14.93;6.40;;;;;;;23.11;64.44;101551.00;5041777;28;20655;-77
2022/07/21 09:32:31;;;;;;;12.18;6.07;;;;;;;22.67;65.35;101555.50;5036395;28;20055;-76
2022/07/21 09:35:00;;;;;;;9.57;5.57;;;;;;;22.51;66.83;101558.72;5037854;28;20071;-74
2022/07/21 09:37:26;;;;;;;12.32;6.40;;;;;;;22.39;68.44;101560.44;5042052;28;20071;-74
2022/07/21 09:40:00;;;;;;;11.20;6.25;;;;;;;22.20;69.31;101560.34;5065829;28;20059;-74
2022/07/21 09:42:31;;;;;;;7.55;5.05;;;;;;;22.11;69.64;101556.34;5046057;28;20078;-75
2022/07/21 09:45:05;;;;;;;11.00;6.40;;;;;;;22.21;70.88;101566.44;5040662;28;20028;-75
2022/07/21 09:47:32;;;;;;;11.35;6.53;;;;;;;22.21;71.38;101567.25;5056283;28;20035;-74
2022/07/21 09:49:59;;;;;;;10.52;6.45;;;;;;;22.08;71.17;101570.81;5062854;28;20028;-75
2022/07/21 09:52:29;;;;;;;16.02;7.20;;;;;;;21.99;71.24;101568.63;5062818;28;20731;-74
2022/07/21 09:55:04;;;;;;;13.05;7.00;;;;;;;21.96;71.50;101578.59;5065773;28;20043;-73
2022/07/21 09:57:30;;;;;;;10.88;6.72;;;;;;;21.81;71.86;101578.06;5021983;28;20036;-77
2022/07/21 09:59:56;;;;;;;12.88;6.82;;;;;;;21.82;71.65;101584.19;5041084;28;20051;-74
2022/07/21 10:02:24;;;;;;;9.68;6.53;;;;;;;21.74;71.88;101583.41;5039631;28;20036;-75
2022/07/21 10:04:54;;;;;;;13.70;7.53;;;;;;;21.67;72.60;101592.38;5040868;28;20044;-75
2022/07/21 10:07:21;;;;;;;12.73;7.50;;;;;;;21.57;73.41;101582.28;5041857;28;21467;-73
2022/07/21 10:09:48;;;;;;;17.05;9.00;;;;;;;21.40;74.38;101584.53;5041339;28;20037;-75
2022/07/21 10:12:17;;;;;;;15.90;7.93;;;;;;;21.39;75.23;101586.34;5042672;28;20028;-76
2022/07/21 10:14:43;;;;;;;10.93;8.00;;;;;;;21.43;75.68;101589.38;5037095;28;20115;-73
2022/07/21 10:17:09;;;;;;;16.15;7.93;;;;;;;21.51;76.13;101589.19;5040422;28;20036;-74
2022/07/21 10:19:44;;;;;;;15.30;8.05;;;;;;;21.43;76.68;101589.38;5052728;28;20044;-73
2022/07/21 10:22:25;;;;;;;16.73;9.65;;;;;;;21.32;79.36;101592.66;5058687;28;20040;-74
2022/07/21 10:24:52;;;;;;;16.08;8.35;;;;;;;21.37;79.51;101595.50;5021828;28;20046;-72
2022/07/21 10:27:17;;;;;;;9.70;7.25;;;;;;;21.38;80.59;101590.03;5040402;28;20034;-72
2022/07/21 10:29:55;;;;;;;11.00;7.32;;;;;;;21.31;80.67;101591.88;5044315;28;20035;-74
2022/07/21 10:32:35;;;;;;;8.95;6.47;;;;;;;21.04;81.68;101595.59;5043020;28;20078;-75
2022/07/21 10:35:28;;;;;;;10.93;6.75;;;;;;;20.90;83.77;101598.25;5062678;28;20039;-78
2022/07/21 10:37:54;;;;;;;13.05;7.00;;;;;;;20.74;84.63;101603.97;5042212;28;20051;-75
2022/07/21 10:40:20;;;;;;;9.65;6.72;;;;;;;20.78;85.24;101598.06;5044421;28;20087;-76
2022/07/21 10:43:05;;;;;;;12.80;7.45;;;;;;;20.53;85.92;101611.03;5046502;28;20494;-74
2022/07/21 10:45:30;;;;;;;13.85;8.02;;;;;;;20.58;88.31;101613.84;5046750;28;20536;-74
2022/07/21 10:47:56;;;;;;;14.85;7.53;;;;;;;20.68;86.78;101608.22;5044288;28;20036;-73
2022/07/21 10:50:31;;;;;;;13.88;7.80;;;;;;;20.58;88.52;101611.22;5044380;28;20436;-75
2022/07/21 10:53:00;;;;;;;11.73;8.23;;;;;;;20.55;89.07;101613.44;5044604;28;20036;-75
2022/07/21 10:55:28;;;;;;;12.88;8.50;;;;;;;20.48;89.81;101615.28;5041891;28;20647;-78
2022/07/21 10:58:34;;;;;;;11.45;8.00;;;;;;;20.55;89.31;101616.91;5046773;28;20052;-75
2022/07/21 11:01:02;;;;;;;17.15;8.75;;;;;;;20.58;89.50;101613.06;5038129;28;20048;-74
2022/07/21 11:03:33;;;;;;;12.48;8.23;;;;;;;20.53;89.82;101605.78;5027849;28;20503;-74
2022/07/21 11:06:22;;;;;;;13.80;8.88;;;;;;;20.57;91.34;101611.44;5060286;28;20035;-75
2022/07/21 11:09:03;;;;;;;13.85;8.73;;;;;;;20.55;90.22;101606.38;5060071;28;20075;-78
2022/07/21 11:11:33;;;;;;;14.55;9.10;;;;;;;20.45;91.46;101615.69;5043079;28;20036;-73
2022/07/21 11:14:13;;;;;;;11.98;7.70;;;;;;;20.41;92.00;101618.72;5062839;28;20029;-75
2022/07/21 11:16:41;;;;;;;11.77;7.40;;;;;;;20.34;92.24;101615.28;5061750;28;20033;-78
2022/07/21 11:19:35;;;;;;;10.52;7.63;;;;;;;20.32;92.52;101617.28;5057575;28;20041;-80
2022/07/21 11:22:11;;;;;;;9.45;6.97;;;;;;;20.17;93.48;101614.00;5043027;28;20044;-75